sensor_id;sensor_type;location;lat;lon;timestamp;temperature;humidity
48752;DHT22;34544;48.836;9.174;2023-03-04T00:00:28;1.40;99.90
48752;DHT22;34544;48.836;9.174;2023-03-04T00:02:54;1.40;99.90
48752;DHT22;34544;48.836;9.174;2023-03-04T00:05:20;1.30;99.90
48752;DHT22;34544;48.836;9.174;2023-03-04T00:07:46;1.30;99.90
48752;DHT22;34544;48.836;9.174;2023-03-04T00:10:11;1.30;99.90
48752;DHT22;34544;48.836;9.174;2023-03-04T00:12:37;1.20;99.90
48752;DHT22;34544;48.836;9.174;2023-03-04T00:15:03;1.20;99.90
48752;DHT22;34544;48.836;9.174;2023-03-04T00:17:28;1.20;99.90
48752;DHT22;34544;48.836;9.174;2023-03-04T00:19:56;1.20;99.90
48752;DHT22;34544;48.836;9.174;2023-03-04T00:22:22;1.10;99.90
48752;DHT22;34544;48.836;9.174;2023-03-04T00:24:48;1.10;99.90
48752;DHT22;34544;48.836;9.174;2023-03-04T00:27:13;1.10;99.90
48752;DHT22;34544;48.836;9.174;2023-03-04T00:29:39;1.10;99.90
48752;DHT22;34544;48.836;9.174;2023-03-04T00:32:05;1.00;99.90
48752;DHT22;34544;48.836;9.174;2023-03-04T00:34:31;1.00;99.90
48752;DHT22;34544;48.836;9.174;2023-03-04T00:36:56;1.00;99.90
48752;DHT22;34544;48.836;9.174;2023-03-04T00:39:28;1.00;99.90
48752;DHT22;34544;48.836;9.174;2023-03-04T00:41:54;1.00;99.90
48752;DHT22;34544;48.836;9.174;2023-03-04T00:44:20;1.00;99.90
48752;DHT22;34544;48.836;9.174;2023-03-04T00:46:46;0.90;99.90
48752;DHT22;34544;48.836;9.174;2023-03-04T00:49:12;0.90;99.90
48752;DHT22;34544;48.836;9.174;2023-03-04T00:51:38;0.90;99.90
48752;DHT22;34544;48.836;9.174;2023-03-04T00:54:04;0.90;99.90
48752;DHT22;34544;48.836;9.174;2023-03-04T00:56:29;0.90;99.90
48752;DHT22;34544;48.836;9.174;2023-03-04T00:58:55;0.90;99.90
48752;DHT22;34544;48.836;9.174;2023-03-04T01:01:21;0.90;99.90
48752;DHT22;34544;48.836;9.174;2023-03-04T01:03:46;0.90;99.90
48752;DHT22;34544;48.836;9.174;2023-03-04T01:06:12;0.90;99.90
48752;DHT22;34544;48.836;9.174;2023-03-04T01:08:38;1.00;99.90
48752;DHT22;34544;48.836;9.174;2023-03-04T01:11:04;1.00;99.90
48752;DHT22;34544;48.836;9.174;2023-03-04T01:13:30;0.90;99.90
48752;DHT22;34544;48.836;9.174;2023-03-04T01:15:56;0.90;99.90
48752;DHT22;34544;48.836;9.174;2023-03-04T01:18:22;1.00;99.90
48752;DHT22;34544;48.836;9.174;2023-03-04T01:23:14;0.90;99.90
48752;DHT22;34544;48.836;9.174;2023-03-04T01:25:40;0.90;99.90
48752;DHT22;34544;48.836;9.174;2023-03-04T01:28:06;0.90;99.90
48752;DHT22;34544;48.836;9.174;2023-03-04T01:30:32;0.90;99.90
48752;DHT22;34544;48.836;9.174;2023-03-04T01:32:58;0.90;99.90
48752;DHT22;34544;48.836;9.174;2023-03-04T01:35:23;0.90;99.90
48752;DHT22;34544;48.836;9.174;2023-03-04T01:37:49;0.90;99.90
48752;DHT22;34544;48.836;9.174;2023-03-04T01:40:15;0.90;99.90
48752;DHT22;34544;48.836;9.174;2023-03-04T01:42:40;0.90;99.90
48752;DHT22;34544;48.836;9.174;2023-03-04T01:45:09;0.90;99.90
48752;DHT22;34544;48.836;9.174;2023-03-04T01:47:36;0.90;99.90
48752;DHT22;34544;48.836;9.174;2023-03-04T01:50:04;0.90;99.90
48752;DHT22;34544;48.836;9.174;2023-03-04T01:52:31;0.90;99.90
48752;DHT22;34544;48.836;9.174;2023-03-04T01:54:57;0.80;99.90
48752;DHT22;34544;48.836;9.174;2023-03-04T01:57:24;0.90;99.90
48752;DHT22;34544;48.836;9.174;2023-03-04T02:00:43;0.80;99.90
48752;DHT22;34544;48.836;9.174;2023-03-04T02:03:07;0.80;99.90
48752;DHT22;34544;48.836;9.174;2023-03-04T02:05:38;0.70;99.90
48752;DHT22;34544;48.836;9.174;2023-03-04T02:08:06;0.70;99.90
48752;DHT22;34544;48.836;9.174;2023-03-04T02:10:32;0.70;99.90
48752;DHT22;34544;48.836;9.174;2023-03-04T02:12:59;0.70;99.90
48752;DHT22;34544;48.836;9.174;2023-03-04T02:15:25;0.60;99.90
48752;DHT22;34544;48.836;9.174;2023-03-04T02:17:51;0.60;99.90
48752;DHT22;34544;48.836;9.174;2023-03-04T02:20:34;0.60;99.90
48752;DHT22;34544;48.836;9.174;2023-03-04T02:25:42;0.50;99.90
48752;DHT22;34544;48.836;9.174;2023-03-04T02:28:09;0.50;99.90
48752;DHT22;34544;48.836;9.174;2023-03-04T02:30:35;0.40;99.90
48752;DHT22;34544;48.836;9.174;2023-03-04T02:33:01;0.40;99.90
48752;DHT22;34544;48.836;9.174;2023-03-04T02:35:27;0.40;99.90
48752;DHT22;34544;48.836;9.174;2023-03-04T02:37:53;0.40;99.90
48752;DHT22;34544;48.836;9.174;2023-03-04T02:40:27;0.40;99.90
48752;DHT22;34544;48.836;9.174;2023-03-04T02:42:53;0.30;99.90
48752;DHT22;34544;48.836;9.174;2023-03-04T02:48:07;0.30;99.90
48752;DHT22;34544;48.836;9.174;2023-03-04T02:50:36;0.30;99.90
48752;DHT22;34544;48.836;9.174;2023-03-04T02:53:03;0.30;99.90
48752;DHT22;34544;48.836;9.174;2023-03-04T02:55:29;0.20;99.90
48752;DHT22;34544;48.836;9.174;2023-03-04T02:57:55;0.20;99.90
48752;DHT22;34544;48.836;9.174;2023-03-04T03:00:21;0.20;99.90
48752;DHT22;34544;48.836;9.174;2023-03-04T03:02:47;0.20;99.90
48752;DHT22;34544;48.836;9.174;2023-03-04T03:05:13;0.20;99.90
48752;DHT22;34544;48.836;9.174;2023-03-04T03:07:39;0.20;99.90
48752;DHT22;34544;48.836;9.174;2023-03-04T03:10:05;0.10;99.90
48752;DHT22;34544;48.836;9.174;2023-03-04T03:12:31;0.10;99.90
48752;DHT22;34544;48.836;9.174;2023-03-04T03:14:56;0.10;99.90
48752;DHT22;34544;48.836;9.174;2023-03-04T03:17:23;0.10;99.90
48752;DHT22;34544;48.836;9.174;2023-03-04T03:19:49;0.00;99.90
48752;DHT22;34544;48.836;9.174;2023-03-04T03:22:15;0.10;99.90
48752;DHT22;34544;48.836;9.174;2023-03-04T03:24:41;0.00;99.90
48752;DHT22;34544;48.836;9.174;2023-03-04T03:27:06;0.00;99.90
48752;DHT22;34544;48.836;9.174;2023-03-04T03:29:32;0.00;99.90
48752;DHT22;34544;48.836;9.174;2023-03-04T03:31:58;0.00;99.90
48752;DHT22;34544;48.836;9.174;2023-03-04T03:34:24;0.00;99.90
48752;DHT22;34544;48.836;9.174;2023-03-04T03:36:50;0.00;99.90
48752;DHT22;34544;48.836;9.174;2023-03-04T03:39:15;0.00;99.90
48752;DHT22;34544;48.836;9.174;2023-03-04T03:41:41;0.00;99.90
48752;DHT22;34544;48.836;9.174;2023-03-04T03:44:07;0.00;99.90
48752;DHT22;34544;48.836;9.174;2023-03-04T03:46:33;0.00;99.90
48752;DHT22;34544;48.836;9.174;2023-03-04T03:49:00;-0.10;99.90
48752;DHT22;34544;48.836;9.174;2023-03-04T03:51:26;-0.10;99.90
48752;DHT22;34544;48.836;9.174;2023-03-04T03:53:51;-0.10;99.90
48752;DHT22;34544;48.836;9.174;2023-03-04T03:56:17;-0.20;99.90
48752;DHT22;34544;48.836;9.174;2023-03-04T03:58:42;-0.20;99.90
48752;DHT22;34544;48.836;9.174;2023-03-04T04:01:08;-0.20;99.90
48752;DHT22;34544;48.836;9.174;2023-03-04T04:03:34;-0.20;99.90
48752;DHT22;34544;48.836;9.174;2023-03-04T04:05:59;-0.30;99.90
48752;DHT22;34544;48.836;9.174;2023-03-04T04:08:25;-0.30;99.90
48752;DHT22;34544;48.836;9.174;2023-03-04T04:10:51;-0.30;99.90
48752;DHT22;34544;48.836;9.174;2023-03-04T04:13:17;-0.30;99.90
48752;DHT22;34544;48.836;9.174;2023-03-04T04:15:43;-0.30;99.90
48752;DHT22;34544;48.836;9.174;2023-03-04T04:18:08;-0.30;99.90
48752;DHT22;34544;48.836;9.174;2023-03-04T04:20:34;-0.30;99.90
48752;DHT22;34544;48.836;9.174;2023-03-04T04:23:00;-0.30;99.90
48752;DHT22;34544;48.836;9.174;2023-03-04T04:25:26;-0.30;99.90
48752;DHT22;34544;48.836;9.174;2023-03-04T04:27:52;-0.30;99.90
48752;DHT22;34544;48.836;9.174;2023-03-04T04:30:17;-0.30;99.90
48752;DHT22;34544;48.836;9.174;2023-03-04T04:32:43;-0.30;99.90
48752;DHT22;34544;48.836;9.174;2023-03-04T04:35:10;-0.30;99.90
48752;DHT22;34544;48.836;9.174;2023-03-04T04:37:35;-0.30;99.90
48752;DHT22;34544;48.836;9.174;2023-03-04T04:40:01;-0.30;99.90
48752;DHT22;34544;48.836;9.174;2023-03-04T04:42:28;-0.30;99.90
48752;DHT22;34544;48.836;9.174;2023-03-04T04:44:53;-0.30;99.90
48752;DHT22;34544;48.836;9.174;2023-03-04T04:47:19;-0.30;99.90
48752;DHT22;34544;48.836;9.174;2023-03-04T04:49:45;-0.40;99.90
48752;DHT22;34544;48.836;9.174;2023-03-04T04:52:11;-0.30;99.90
48752;DHT22;34544;48.836;9.174;2023-03-04T04:54:36;-0.40;99.90
48752;DHT22;34544;48.836;9.174;2023-03-04T04:57:02;-0.40;99.90
48752;DHT22;34544;48.836;9.174;2023-03-04T04:59:28;-0.40;99.90
48752;DHT22;34544;48.836;9.174;2023-03-04T05:01:53;-0.40;99.90
48752;DHT22;34544;48.836;9.174;2023-03-04T05:04:19;-0.50;99.90
48752;DHT22;34544;48.836;9.174;2023-03-04T05:06:44;-0.50;99.90
48752;DHT22;34544;48.836;9.174;2023-03-04T05:09:11;-0.50;99.90
48752;DHT22;34544;48.836;9.174;2023-03-04T05:11:37;-0.60;99.90
48752;DHT22;34544;48.836;9.174;2023-03-04T05:14:02;-0.60;99.90
48752;DHT22;34544;48.836;9.174;2023-03-04T05:16:28;-0.70;99.90
48752;DHT22;34544;48.836;9.174;2023-03-04T05:18:54;-0.70;99.90
48752;DHT22;34544;48.836;9.174;2023-03-04T05:21:20;-0.80;99.90
48752;DHT22;34544;48.836;9.174;2023-03-04T05:23:45;-0.80;99.90
48752;DHT22;34544;48.836;9.174;2023-03-04T05:26:13;-0.80;99.90
48752;DHT22;34544;48.836;9.174;2023-03-04T05:28:39;-0.80;99.90
48752;DHT22;34544;48.836;9.174;2023-03-04T05:31:05;-0.80;99.90
48752;DHT22;34544;48.836;9.174;2023-03-04T05:33:31;-0.80;99.90
48752;DHT22;34544;48.836;9.174;2023-03-04T05:35:57;-0.80;99.90
48752;DHT22;34544;48.836;9.174;2023-03-04T05:38:23;-0.80;99.90
48752;DHT22;34544;48.836;9.174;2023-03-04T05:40:58;-0.90;99.90
48752;DHT22;34544;48.836;9.174;2023-03-04T05:43:24;-0.90;99.90
48752;DHT22;34544;48.836;9.174;2023-03-04T05:45:50;-1.00;99.90
48752;DHT22;34544;48.836;9.174;2023-03-04T05:48:16;-1.00;99.90
48752;DHT22;34544;48.836;9.174;2023-03-04T05:50:41;-1.00;99.90
48752;DHT22;34544;48.836;9.174;2023-03-04T05:53:07;-1.00;99.90
48752;DHT22;34544;48.836;9.174;2023-03-04T05:55:33;-1.10;99.90
48752;DHT22;34544;48.836;9.174;2023-03-04T05:57:58;-1.10;99.90
48752;DHT22;34544;48.836;9.174;2023-03-04T06:00:24;-1.10;99.90
48752;DHT22;34544;48.836;9.174;2023-03-04T06:02:50;-1.10;99.90
48752;DHT22;34544;48.836;9.174;2023-03-04T06:05:16;-1.20;99.90
48752;DHT22;34544;48.836;9.174;2023-03-04T06:07:43;-1.10;99.90
48752;DHT22;34544;48.836;9.174;2023-03-04T06:10:10;-1.10;99.90
48752;DHT22;34544;48.836;9.174;2023-03-04T06:12:36;-1.00;99.90
48752;DHT22;34544;48.836;9.174;2023-03-04T06:15:02;-1.00;99.90
48752;DHT22;34544;48.836;9.174;2023-03-04T06:17:29;-0.90;99.90
48752;DHT22;34544;48.836;9.174;2023-03-04T06:19:54;-0.90;99.90
48752;DHT22;34544;48.836;9.174;2023-03-04T06:22:20;-0.80;99.90
48752;DHT22;34544;48.836;9.174;2023-03-04T06:24:46;-0.80;99.90
48752;DHT22;34544;48.836;9.174;2023-03-04T06:27:11;-0.70;99.90
48752;DHT22;34544;48.836;9.174;2023-03-04T06:29:38;-0.70;99.90
48752;DHT22;34544;48.836;9.174;2023-03-04T06:32:04;-0.70;99.90
48752;DHT22;34544;48.836;9.174;2023-03-04T06:34:29;-0.70;99.90
48752;DHT22;34544;48.836;9.174;2023-03-04T06:36:55;-0.60;99.90
48752;DHT22;34544;48.836;9.174;2023-03-04T06:39:21;-0.60;99.90
48752;DHT22;34544;48.836;9.174;2023-03-04T06:41:46;-0.60;99.90
48752;DHT22;34544;48.836;9.174;2023-03-04T06:44:12;-0.50;99.90
48752;DHT22;34544;48.836;9.174;2023-03-04T06:46:38;-0.40;99.90
48752;DHT22;34544;48.836;9.174;2023-03-04T06:49:03;-0.40;99.90
48752;DHT22;34544;48.836;9.174;2023-03-04T06:51:29;-0.30;99.90
48752;DHT22;34544;48.836;9.174;2023-03-04T06:53:55;-0.30;99.90
48752;DHT22;34544;48.836;9.174;2023-03-04T06:56:21;-0.20;99.90
48752;DHT22;34544;48.836;9.174;2023-03-04T06:58:47;-0.20;99.90
48752;DHT22;34544;48.836;9.174;2023-03-04T07:01:17;-0.10;99.90
48752;DHT22;34544;48.836;9.174;2023-03-04T07:03:43;0.00;99.90
48752;DHT22;34544;48.836;9.174;2023-03-04T07:06:11;0.00;99.90
48752;DHT22;34544;48.836;9.174;2023-03-04T07:08:37;0.20;99.90
48752;DHT22;34544;48.836;9.174;2023-03-04T07:11:03;0.30;99.90
48752;DHT22;34544;48.836;9.174;2023-03-04T07:13:29;0.30;99.90
48752;DHT22;34544;48.836;9.174;2023-03-04T07:15:55;0.40;99.90
48752;DHT22;34544;48.836;9.174;2023-03-04T07:18:21;0.50;99.90
48752;DHT22;34544;48.836;9.174;2023-03-04T07:20:46;0.60;99.90
48752;DHT22;34544;48.836;9.174;2023-03-04T07:23:12;0.70;99.90
48752;DHT22;34544;48.836;9.174;2023-03-04T07:25:38;0.80;99.90
48752;DHT22;34544;48.836;9.174;2023-03-04T07:28:03;0.90;99.90
48752;DHT22;34544;48.836;9.174;2023-03-04T07:30:29;1.10;99.90
48752;DHT22;34544;48.836;9.174;2023-03-04T07:32:57;1.20;99.90
48752;DHT22;34544;48.836;9.174;2023-03-04T07:35:23;1.30;99.90
48752;DHT22;34544;48.836;9.174;2023-03-04T07:37:48;1.40;99.90
48752;DHT22;34544;48.836;9.174;2023-03-04T07:40:14;1.50;99.90
48752;DHT22;34544;48.836;9.174;2023-03-04T07:42:40;1.50;99.90
48752;DHT22;34544;48.836;9.174;2023-03-04T07:45:10;1.60;99.90
48752;DHT22;34544;48.836;9.174;2023-03-04T07:47:35;1.70;99.90
48752;DHT22;34544;48.836;9.174;2023-03-04T07:50:02;1.80;99.90
48752;DHT22;34544;48.836;9.174;2023-03-04T07:52:28;1.90;99.90
48752;DHT22;34544;48.836;9.174;2023-03-04T07:54:54;1.90;99.90
48752;DHT22;34544;48.836;9.174;2023-03-04T07:57:19;1.90;99.90
48752;DHT22;34544;48.836;9.174;2023-03-04T07:59:45;1.90;99.90
48752;DHT22;34544;48.836;9.174;2023-03-04T08:02:14;2.00;99.90
48752;DHT22;34544;48.836;9.174;2023-03-04T08:04:40;2.00;99.90
48752;DHT22;34544;48.836;9.174;2023-03-04T08:07:06;2.10;99.90
48752;DHT22;34544;48.836;9.174;2023-03-04T08:09:31;2.20;99.90
48752;DHT22;34544;48.836;9.174;2023-03-04T08:11:57;2.20;99.90
48752;DHT22;34544;48.836;9.174;2023-03-04T08:14:23;2.30;99.90
48752;DHT22;34544;48.836;9.174;2023-03-04T08:16:48;2.30;99.90
48752;DHT22;34544;48.836;9.174;2023-03-04T08:19:14;2.30;99.90
48752;DHT22;34544;48.836;9.174;2023-03-04T08:21:39;2.30;99.90
48752;DHT22;34544;48.836;9.174;2023-03-04T08:24:05;2.30;99.90
48752;DHT22;34544;48.836;9.174;2023-03-04T08:26:40;2.20;99.90
48752;DHT22;34544;48.836;9.174;2023-03-04T08:29:07;2.30;99.90
48752;DHT22;34544;48.836;9.174;2023-03-04T08:31:33;2.30;99.90
48752;DHT22;34544;48.836;9.174;2023-03-04T08:34:01;2.40;99.90
48752;DHT22;34544;48.836;9.174;2023-03-04T08:36:26;2.40;99.90
48752;DHT22;34544;48.836;9.174;2023-03-04T08:38:52;2.40;99.90
48752;DHT22;34544;48.836;9.174;2023-03-04T08:41:18;2.50;99.90
48752;DHT22;34544;48.836;9.174;2023-03-04T08:43:43;2.50;99.90
48752;DHT22;34544;48.836;9.174;2023-03-04T08:46:09;2.60;99.90
48752;DHT22;34544;48.836;9.174;2023-03-04T08:48:36;2.60;99.90
48752;DHT22;34544;48.836;9.174;2023-03-04T08:51:07;2.70;99.90
48752;DHT22;34544;48.836;9.174;2023-03-04T08:53:33;2.80;99.90
48752;DHT22;34544;48.836;9.174;2023-03-04T08:55:59;2.90;99.90
48752;DHT22;34544;48.836;9.174;2023-03-04T08:58:24;2.90;99.90
48752;DHT22;34544;48.836;9.174;2023-03-04T09:00:50;2.90;99.90
48752;DHT22;34544;48.836;9.174;2023-03-04T09:03:16;3.00;99.90
48752;DHT22;34544;48.836;9.174;2023-03-04T09:05:45;3.00;99.90
48752;DHT22;34544;48.836;9.174;2023-03-04T09:08:12;3.10;99.90
48752;DHT22;34544;48.836;9.174;2023-03-04T09:10:37;3.10;99.90
48752;DHT22;34544;48.836;9.174;2023-03-04T09:13:03;3.10;99.90
48752;DHT22;34544;48.836;9.174;2023-03-04T09:15:28;3.10;99.90
48752;DHT22;34544;48.836;9.174;2023-03-04T09:17:54;3.20;99.90
48752;DHT22;34544;48.836;9.174;2023-03-04T09:20:20;3.20;99.90
48752;DHT22;34544;48.836;9.174;2023-03-04T09:22:47;3.20;99.90
48752;DHT22;34544;48.836;9.174;2023-03-04T09:25:14;3.30;99.90
48752;DHT22;34544;48.836;9.174;2023-03-04T09:27:40;3.30;99.90
48752;DHT22;34544;48.836;9.174;2023-03-04T09:30:07;3.30;99.90
48752;DHT22;34544;48.836;9.174;2023-03-04T09:32:33;3.40;99.90
48752;DHT22;34544;48.836;9.174;2023-03-04T09:34:58;3.40;99.90
48752;DHT22;34544;48.836;9.174;2023-03-04T09:37:24;3.50;99.90
48752;DHT22;34544;48.836;9.174;2023-03-04T09:39:50;3.50;99.90
48752;DHT22;34544;48.836;9.174;2023-03-04T09:42:31;3.50;99.90
48752;DHT22;34544;48.836;9.174;2023-03-04T09:44:59;3.50;99.90
48752;DHT22;34544;48.836;9.174;2023-03-04T09:47:25;3.60;99.90
48752;DHT22;34544;48.836;9.174;2023-03-04T09:49:57;3.70;99.90
48752;DHT22;34544;48.836;9.174;2023-03-04T10:01:00;4.10;99.90
48752;DHT22;34544;48.836;9.174;2023-03-04T10:03:50;4.20;99.90
48752;DHT22;34544;48.836;9.174;2023-03-04T10:06:19;4.30;99.90
48752;DHT22;34544;48.836;9.174;2023-03-04T10:08:53;4.40;99.90
48752;DHT22;34544;48.836;9.174;2023-03-04T10:11:25;4.40;99.90
48752;DHT22;34544;48.836;9.174;2023-03-04T10:16:53;4.40;99.90
48752;DHT22;34544;48.836;9.174;2023-03-04T10:20:00;4.40;99.90
48752;DHT22;34544;48.836;9.174;2023-03-04T10:22:46;4.40;99.90
48752;DHT22;34544;48.836;9.174;2023-03-04T10:25:22;4.40;99.90
48752;DHT22;34544;48.836;9.174;2023-03-04T10:30:47;4.50;99.90
48752;DHT22;34544;48.836;9.174;2023-03-04T10:33:20;4.60;99.90
48752;DHT22;34544;48.836;9.174;2023-03-04T10:36:01;4.80;99.90
48752;DHT22;34544;48.836;9.174;2023-03-04T10:38:35;4.80;99.90
48752;DHT22;34544;48.836;9.174;2023-03-04T10:41:12;4.90;99.90
48752;DHT22;34544;48.836;9.174;2023-03-04T10:43:38;5.00;99.90
48752;DHT22;34544;48.836;9.174;2023-03-04T10:46:04;5.10;99.90
48752;DHT22;34544;48.836;9.174;2023-03-04T10:48:30;5.10;99.90
48752;DHT22;34544;48.836;9.174;2023-03-04T10:51:18;5.10;99.90
48752;DHT22;34544;48.836;9.174;2023-03-04T10:53:46;5.10;99.90
48752;DHT22;34544;48.836;9.174;2023-03-04T10:56:33;5.10;99.90
48752;DHT22;34544;48.836;9.174;2023-03-04T11:01:52;5.10;99.90
48752;DHT22;34544;48.836;9.174;2023-03-04T11:04:19;5.10;99.90
48752;DHT22;34544;48.836;9.174;2023-03-04T11:06:47;5.00;99.90
48752;DHT22;34544;48.836;9.174;2023-03-04T11:09:22;5.00;99.90
48752;DHT22;34544;48.836;9.174;2023-03-04T11:11:49;5.00;99.90
48752;DHT22;34544;48.836;9.174;2023-03-04T11:14:23;5.00;99.90
48752;DHT22;34544;48.836;9.174;2023-03-04T11:16:56;5.10;99.90
48752;DHT22;34544;48.836;9.174;2023-03-04T11:19:25;5.00;99.90
48752;DHT22;34544;48.836;9.174;2023-03-04T11:21:54;5.10;99.90
48752;DHT22;34544;48.836;9.174;2023-03-04T11:24:31;5.00;99.90
48752;DHT22;34544;48.836;9.174;2023-03-04T11:32:21;5.00;99.90
48752;DHT22;34544;48.836;9.174;2023-03-04T11:35:07;5.00;99.90
48752;DHT22;34544;48.836;9.174;2023-03-04T11:37:44;5.00;99.90
48752;DHT22;34544;48.836;9.174;2023-03-04T11:43:05;5.00;99.90
48752;DHT22;34544;48.836;9.174;2023-03-04T11:54:36;4.90;99.90
48752;DHT22;34544;48.836;9.174;2023-03-04T11:57:05;4.90;99.90
48752;DHT22;34544;48.836;9.174;2023-03-04T12:03:20;5.00;99.90
48752;DHT22;34544;48.836;9.174;2023-03-04T12:06:07;5.00;99.90
48752;DHT22;34544;48.836;9.174;2023-03-04T12:11:38;4.90;99.90
48752;DHT22;34544;48.836;9.174;2023-03-04T12:14:43;5.00;99.90
48752;DHT22;34544;48.836;9.174;2023-03-04T12:17:29;5.00;99.90
48752;DHT22;34544;48.836;9.174;2023-03-04T12:23:08;4.90;99.90
48752;DHT22;34544;48.836;9.174;2023-03-04T12:25:43;4.90;99.90
48752;DHT22;34544;48.836;9.174;2023-03-04T12:28:45;4.90;99.90
48752;DHT22;34544;48.836;9.174;2023-03-04T12:45:02;4.90;99.90
48752;DHT22;34544;48.836;9.174;2023-03-04T12:47:57;4.90;99.90
48752;DHT22;34544;48.836;9.174;2023-03-04T12:50:41;4.90;99.90
48752;DHT22;34544;48.836;9.174;2023-03-04T12:53:37;4.90;99.90
48752;DHT22;34544;48.836;9.174;2023-03-04T12:56:30;4.90;99.90
48752;DHT22;34544;48.836;9.174;2023-03-04T12:58:58;5.00;99.90
48752;DHT22;34544;48.836;9.174;2023-03-04T13:01:28;5.00;99.90
48752;DHT22;34544;48.836;9.174;2023-03-04T13:04:13;4.90;99.90
48752;DHT22;34544;48.836;9.174;2023-03-04T13:16:51;4.70;99.90
48752;DHT22;34544;48.836;9.174;2023-03-04T13:19:55;4.70;99.90
48752;DHT22;34544;48.836;9.174;2023-03-04T13:22:46;4.70;99.90
48752;DHT22;34544;48.836;9.174;2023-03-04T13:28:32;4.80;99.90
48752;DHT22;34544;48.836;9.174;2023-03-04T13:31:13;4.90;99.90
48752;DHT22;34544;48.836;9.174;2023-03-04T13:33:51;4.90;99.90
48752;DHT22;34544;48.836;9.174;2023-03-04T13:36:32;4.90;99.90
48752;DHT22;34544;48.836;9.174;2023-03-04T13:41:46;4.80;99.90
48752;DHT22;34544;48.836;9.174;2023-03-04T13:47:17;4.80;99.90
48752;DHT22;34544;48.836;9.174;2023-03-04T13:49:44;4.80;99.90
48752;DHT22;34544;48.836;9.174;2023-03-04T13:52:48;4.90;99.90
48752;DHT22;34544;48.836;9.174;2023-03-04T13:55:34;4.90;99.90
48752;DHT22;34544;48.836;9.174;2023-03-04T13:58:29;4.80;99.90
48752;DHT22;34544;48.836;9.174;2023-03-04T14:00:55;4.80;99.90
48752;DHT22;34544;48.836;9.174;2023-03-04T14:03:24;4.80;99.90
48752;DHT22;34544;48.836;9.174;2023-03-04T14:06:17;4.70;99.90
48752;DHT22;34544;48.836;9.174;2023-03-04T14:08:44;4.70;99.90
48752;DHT22;34544;48.836;9.174;2023-03-04T14:11:55;4.70;99.90
48752;DHT22;34544;48.836;9.174;2023-03-04T14:14:06;4.60;99.90
48752;DHT22;34544;48.836;9.174;2023-03-04T14:16:37;4.60;99.90
48752;DHT22;34544;48.836;9.174;2023-03-04T14:19:06;4.60;99.90
48752;DHT22;34544;48.836;9.174;2023-03-04T14:21:33;4.60;99.90
48752;DHT22;34544;48.836;9.174;2023-03-04T14:24:07;4.50;99.90
48752;DHT22;34544;48.836;9.174;2023-03-04T14:26:35;4.60;99.90
48752;DHT22;34544;48.836;9.174;2023-03-04T14:29:01;4.60;99.90
48752;DHT22;34544;48.836;9.174;2023-03-04T14:31:30;4.50;99.90
48752;DHT22;34544;48.836;9.174;2023-03-04T14:33:59;4.50;99.90
48752;DHT22;34544;48.836;9.174;2023-03-04T14:36:29;4.50;99.90
48752;DHT22;34544;48.836;9.174;2023-03-04T14:38:58;4.60;99.90
48752;DHT22;34544;48.836;9.174;2023-03-04T14:41:35;4.60;99.90
48752;DHT22;34544;48.836;9.174;2023-03-04T14:46:59;4.60;99.90
48752;DHT22;34544;48.836;9.174;2023-03-04T14:49:26;4.50;99.90
48752;DHT22;34544;48.836;9.174;2023-03-04T14:51:54;4.50;99.90
48752;DHT22;34544;48.836;9.174;2023-03-04T14:54:41;4.50;99.90
48752;DHT22;34544;48.836;9.174;2023-03-04T14:59:48;4.40;99.90
48752;DHT22;34544;48.836;9.174;2023-03-04T15:02:26;4.50;99.90
48752;DHT22;34544;48.836;9.174;2023-03-04T15:05:06;4.50;99.90
48752;DHT22;34544;48.836;9.174;2023-03-04T15:07:34;4.50;99.90
48752;DHT22;34544;48.836;9.174;2023-03-04T15:10:03;4.50;99.90
48752;DHT22;34544;48.836;9.174;2023-03-04T15:12:31;4.50;99.90
48752;DHT22;34544;48.836;9.174;2023-03-04T15:15:00;4.50;99.90
48752;DHT22;34544;48.836;9.174;2023-03-04T15:17:33;4.50;99.90
48752;DHT22;34544;48.836;9.174;2023-03-04T15:23:00;4.50;99.90
48752;DHT22;34544;48.836;9.174;2023-03-04T15:25:27;4.50;99.90
48752;DHT22;34544;48.836;9.174;2023-03-04T15:27:53;4.50;99.90
48752;DHT22;34544;48.836;9.174;2023-03-04T15:32:47;4.40;99.90
48752;DHT22;34544;48.836;9.174;2023-03-04T15:35:15;4.40;99.90
48752;DHT22;34544;48.836;9.174;2023-03-04T15:37:42;4.30;99.90
48752;DHT22;34544;48.836;9.174;2023-03-04T15:42:49;4.30;99.90
48752;DHT22;34544;48.836;9.174;2023-03-04T15:45:21;4.30;99.90
48752;DHT22;34544;48.836;9.174;2023-03-04T15:47:48;4.30;99.90
48752;DHT22;34544;48.836;9.174;2023-03-04T15:50:15;4.30;99.90
48752;DHT22;34544;48.836;9.174;2023-03-04T15:52:40;4.30;99.90
48752;DHT22;34544;48.836;9.174;2023-03-04T15:55:09;4.20;99.90
48752;DHT22;34544;48.836;9.174;2023-03-04T15:57:38;4.20;99.90
48752;DHT22;34544;48.836;9.174;2023-03-04T16:00:04;4.20;99.90
48752;DHT22;34544;48.836;9.174;2023-03-04T16:02:36;4.20;99.90
48752;DHT22;34544;48.836;9.174;2023-03-04T16:05:02;4.20;99.90
48752;DHT22;34544;48.836;9.174;2023-03-04T16:07:29;4.20;99.90
48752;DHT22;34544;48.836;9.174;2023-03-04T16:09:58;4.20;99.90
48752;DHT22;34544;48.836;9.174;2023-03-04T16:12:26;4.20;99.90
48752;DHT22;34544;48.836;9.174;2023-03-04T16:14:52;4.20;99.90
48752;DHT22;34544;48.836;9.174;2023-03-04T16:17:18;4.20;99.90
48752;DHT22;34544;48.836;9.174;2023-03-04T16:19:44;4.20;99.90
48752;DHT22;34544;48.836;9.174;2023-03-04T16:22:19;4.20;99.90
48752;DHT22;34544;48.836;9.174;2023-03-04T16:24:49;4.20;99.90
48752;DHT22;34544;48.836;9.174;2023-03-04T16:27:16;4.20;99.90
48752;DHT22;34544;48.836;9.174;2023-03-04T16:29:43;4.10;99.90
48752;DHT22;34544;48.836;9.174;2023-03-04T16:32:10;4.10;99.90
48752;DHT22;34544;48.836;9.174;2023-03-04T16:34:36;4.10;99.90
48752;DHT22;34544;48.836;9.174;2023-03-04T16:37:06;4.10;99.90
48752;DHT22;34544;48.836;9.174;2023-03-04T16:39:32;4.10;99.90
48752;DHT22;34544;48.836;9.174;2023-03-04T16:41:58;4.10;99.90
48752;DHT22;34544;48.836;9.174;2023-03-04T16:44:24;4.00;99.90
48752;DHT22;34544;48.836;9.174;2023-03-04T16:46:50;4.10;99.90
48752;DHT22;34544;48.836;9.174;2023-03-04T16:49:15;4.00;99.90
48752;DHT22;34544;48.836;9.174;2023-03-04T16:51:45;4.10;99.90
48752;DHT22;34544;48.836;9.174;2023-03-04T16:54:27;4.10;99.90
48752;DHT22;34544;48.836;9.174;2023-03-04T16:56:55;4.10;99.90
48752;DHT22;34544;48.836;9.174;2023-03-04T16:59:21;4.10;99.90
48752;DHT22;34544;48.836;9.174;2023-03-04T17:01:47;4.10;99.90
48752;DHT22;34544;48.836;9.174;2023-03-04T17:04:13;4.00;99.90
48752;DHT22;34544;48.836;9.174;2023-03-04T17:06:39;4.00;99.90
48752;DHT22;34544;48.836;9.174;2023-03-04T17:09:05;4.00;99.90
48752;DHT22;34544;48.836;9.174;2023-03-04T17:11:31;4.00;99.90
48752;DHT22;34544;48.836;9.174;2023-03-04T17:13:57;4.00;99.90
48752;DHT22;34544;48.836;9.174;2023-03-04T17:16:23;4.10;99.90
48752;DHT22;34544;48.836;9.174;2023-03-04T17:18:49;4.10;99.90
48752;DHT22;34544;48.836;9.174;2023-03-04T17:21:17;4.10;99.90
48752;DHT22;34544;48.836;9.174;2023-03-04T17:23:43;4.10;99.90
48752;DHT22;34544;48.836;9.174;2023-03-04T17:26:09;4.10;99.90
48752;DHT22;34544;48.836;9.174;2023-03-04T17:28:36;4.00;99.90
48752;DHT22;34544;48.836;9.174;2023-03-04T17:31:11;4.00;99.90